Terminal Aerodrome Forecast
Issued by NWS

Home | Current Version | Previous Version | Graphics & Text | Print | Product List | Glossary On
Versions: 1 2 3 4 5 6 7 8 9 10 11 12 13 14 15 16 17 18 19 20 21 22 23 24 25 26
000
FTUS42 KMHX 121100 RRA
TAFISO
TAF
KISO 121144Z 1212/1312 22005KT 5SM BR BKN006
     FM121400 02005KT P6SM VCSH BKN030 BKN080
     FM122000 05004KT 3SM -SHRA BR SCT008 OVC015
     FM130500 VRB02KT 3/4SM -RA BR OVC003
      AMD LTD TO CLD VIS AND WIND=

USA.gov is the U.S. government's official web portal to all federal, state and local government web resources and services.